Time;durP1;ratioP1;P1;durP2;ratioP2;P2;SDS_P1;SDS_P2;PMS_P1;PMS_P2;Temp;Humidity;BMP_temperature;BMP_pressure;BME280_temperature;BME280_humidity;BME280_pressure;Samples;Min_cycle;Max_cycle;Signal;HPM_P1;HPM_P2
2023/01/22 00:01:11;;;;;;;17.20;7.20;;;;;;;0.62;74.06;100949.13;4999567;28;20034;-73
2023/01/22 00:03:38;;;;;;;15.63;7.40;;;;;;;0.54;73.47;100953.94;4992668;28;20027;-74
2023/01/22 00:06:04;;;;;;;15.80;7.28;;;;;;;0.56;73.60;100957.50;4999078;28;20092;-73
2023/01/22 00:08:30;;;;;;;18.40;7.47;;;;;;;0.55;73.65;100954.00;5000480;28;20136;-73
2023/01/22 00:10:56;;;;;;;14.00;6.93;;;;;;;0.53;73.39;100958.22;5000637;28;20034;-73
2023/01/22 00:13:23;;;;;;;14.77;7.63;;;;;;;0.53;74.15;100963.41;5000610;28;20495;-74
2023/01/22 00:15:49;;;;;;;14.87;7.40;;;;;;;0.46;73.25;100961.34;4998996;28;20121;-74
2023/01/22 00:18:14;;;;;;;14.60;7.18;;;;;;;0.53;73.81;100957.34;5011700;28;20050;-73
2023/01/22 00:20:40;;;;;;;13.27;5.90;;;;;;;0.51;73.68;100956.38;5000360;28;20058;-73
2023/01/22 00:23:05;;;;;;;13.52;6.50;;;;;;;0.52;73.61;100952.97;5000338;28;20026;-73
2023/01/22 00:25:31;;;;;;;14.90;6.87;;;;;;;0.51;73.77;100952.06;5000069;28;20038;-73
2023/01/22 00:27:57;;;;;;;14.93;7.00;;;;;;;0.52;74.08;100948.66;5000488;28;20031;-73
2023/01/22 00:30:23;;;;;;;15.23;6.83;;;;;;;0.55;74.14;100955.72;5014975;28;20026;-73
2023/01/22 00:32:48;;;;;;;15.73;6.70;;;;;;;0.51;73.38;100964.16;4998520;28;20026;-73
2023/01/22 00:35:14;;;;;;;15.83;7.37;;;;;;;0.50;73.74;100963.25;4999809;28;20038;-73
2023/01/22 00:37:39;;;;;;;15.17;6.33;;;;;;;0.52;74.06;100951.25;5000455;28;20022;-73
2023/01/22 00:40:06;;;;;;;15.38;6.28;;;;;;;0.49;74.08;100956.31;4998585;28;20041;-74
2023/01/22 00:42:31;;;;;;;12.97;6.23;;;;;;;0.50;74.09;100957.22;4999998;28;20034;-73
2023/01/22 00:44:58;;;;;;;13.55;6.47;;;;;;;0.50;74.35;100955.47;4999071;28;20030;-73
2023/01/22 00:47:24;;;;;;;13.25;6.63;;;;;;;0.49;74.11;100961.47;4999678;28;20399;-74
2023/01/22 00:49:49;;;;;;;13.23;6.40;;;;;;;0.52;74.32;100971.13;4999639;28;20113;-74
2023/01/22 00:52:15;;;;;;;14.73;6.70;;;;;;;0.49;73.85;100964.06;4999964;28;20061;-74
2023/01/22 00:54:40;;;;;;;16.37;6.87;;;;;;;0.50;73.75;100963.25;4999793;28;20031;-73
2023/01/22 00:57:05;;;;;;;13.20;6.77;;;;;;;0.46;73.63;100965.63;4994714;28;20340;-74
2023/01/22 00:59:31;;;;;;;12.47;6.40;;;;;;;0.47;74.11;100963.13;4999523;28;20037;-73
2023/01/22 01:01:56;;;;;;;13.73;6.57;;;;;;;0.46;73.84;100979.47;5004867;28;20034;-74
2023/01/22 01:04:22;;;;;;;13.90;6.43;;;;;;;0.47;74.18;100976.06;4998301;28;20034;-73
2023/01/22 01:06:47;;;;;;;15.80;6.83;;;;;;;0.48;73.92;100975.25;4999409;28;20136;-74
2023/01/22 01:09:13;;;;;;;12.63;5.73;;;;;;;0.47;73.64;100973.47;4999470;28;20332;-74
2023/01/22 01:11:39;;;;;;;14.90;7.10;;;;;;;0.47;73.81;100983.84;4999664;28;20030;-74
2023/01/22 01:14:04;;;;;;;15.27;6.80;;;;;;;0.45;73.16;100975.13;4999632;28;20034;-73
2023/01/22 01:16:30;;;;;;;13.80;6.40;;;;;;;0.44;73.78;100973.34;4999151;28;20109;-73
2023/01/22 01:19:01;;;;;;;14.82;6.30;;;;;;;0.45;74.31;100985.47;4999490;28;20061;-73
2023/01/22 01:21:27;;;;;;;14.60;6.60;;;;;;;0.45;73.86;100985.47;4998439;28;20034;-73
2023/01/22 01:23:54;;;;;;;15.13;6.82;;;;;;;0.44;73.88;100978.53;4999317;28;20018;-73
2023/01/22 01:26:20;;;;;;;14.30;6.20;;;;;;;0.44;74.22;100983.69;4997834;28;20403;-73
2023/01/22 01:28:46;;;;;;;14.00;6.63;;;;;;;0.43;74.13;100987.97;4980167;28;20027;-74
2023/01/22 01:31:14;;;;;;;13.07;6.07;;;;;;;0.40;73.99;100986.97;4992919;28;20089;-73
2023/01/22 01:33:40;;;;;;;14.27;6.13;;;;;;;0.41;73.86;100999.97;4998821;28;20069;-73
2023/01/22 01:36:10;;;;;;;15.90;6.63;;;;;;;0.41;74.03;100994.78;4999219;28;20040;-74
2023/01/22 01:38:35;;;;;;;14.15;6.75;;;;;;;0.43;73.88;101002.66;4999308;28;20038;-74
2023/01/22 01:41:02;;;;;;;13.65;6.15;;;;;;;0.39;73.59;101011.09;4998899;28;20079;-74
2023/01/22 01:43:28;;;;;;;15.57;6.17;;;;;;;0.40;73.83;101018.94;4997712;28;20045;-74
2023/01/22 01:45:55;;;;;;;15.32;6.95;;;;;;;0.40;73.63;101018.06;4998725;28;21485;-74
2023/01/22 01:48:56;;;;;;;16.40;6.55;;;;;;;0.39;73.96;101017.16;4999070;28;20034;-73
2023/01/22 01:51:27;;;;;;;14.93;6.47;;;;;;;0.40;74.03;101025.81;4999608;28;20037;-74
2023/01/22 01:53:52;;;;;;;13.23;6.43;;;;;;;0.39;74.11;101029.22;4997254;28;20093;-73
2023/01/22 01:56:26;;;;;;;15.30;6.77;;;;;;;0.36;73.56;101029.97;4997372;28;20034;-74
2023/01/22 01:58:58;;;;;;;13.30;6.60;;;;;;;0.32;72.93;101028.03;4998569;28;20277;-74
2023/01/22 02:01:25;;;;;;;13.27;6.03;;;;;;;0.33;73.57;101026.31;5003833;28;20113;-74
2023/01/22 02:03:51;;;;;;;14.18;6.85;;;;;;;0.34;73.54;101033.28;4998648;28;20026;-73
2023/01/22 02:06:18;;;;;;;15.68;6.68;;;;;;;0.32;74.01;101029.72;5013891;28;20166;-74
2023/01/22 02:08:47;;;;;;;16.60;6.88;;;;;;;0.32;73.93;101034.91;4998160;28;20050;-74
2023/01/22 02:11:12;;;;;;;15.77;6.63;;;;;;;0.29;73.98;101035.66;4998570;28;20040;-73
2023/01/22 02:13:47;;;;;;;15.85;7.10;;;;;;;0.26;73.56;101027.72;5013512;28;20390;-73
2023/01/22 02:16:13;;;;;;;15.02;6.30;;;;;;;0.25;73.76;101028.53;4998169;28;20426;-73
2023/01/22 02:18:38;;;;;;;15.83;6.87;;;;;;;0.26;73.73;101035.50;4996742;28;20038;-73
2023/01/22 02:21:32;;;;;;;14.53;6.53;;;;;;;0.23;73.29;101033.63;4998589;28;20034;-73
2023/01/22 02:23:58;;;;;;;15.90;6.38;;;;;;;0.25;73.99;101032.00;4998348;28;20029;-74
2023/01/22 02:26:24;;;;;;;14.60;6.28;;;;;;;0.24;73.62;101037.09;4997864;28;20038;-73
2023/01/22 02:28:49;;;;;;;13.33;6.53;;;;;;;0.22;73.75;101049.09;4998200;28;20030;-74
2023/01/22 02:31:15;;;;;;;14.90;7.17;;;;;;;0.20;73.78;101046.44;4997648;28;20030;-74
2023/01/22 02:33:40;;;;;;;13.50;6.22;;;;;;;0.20;73.69;101045.53;4997637;28;20037;-74
2023/01/22 02:36:06;;;;;;;14.67;6.50;;;;;;;0.17;73.88;101042.78;4995328;28;20026;-73
2023/01/22 02:38:31;;;;;;;16.15;7.20;;;;;;;0.16;73.49;101044.50;5013254;28;20077;-74
2023/01/22 02:40:57;;;;;;;15.03;7.07;;;;;;;0.14;73.92;101035.78;4996600;28;20042;-74
2023/01/22 02:43:23;;;;;;;15.85;6.55;;;;;;;0.14;74.05;101043.53;4997603;28;20049;-74
2023/01/22 02:45:48;;;;;;;17.40;7.30;;;;;;;0.12;73.95;101038.28;4997688;28;20026;-74
2023/01/22 02:48:14;;;;;;;16.50;7.37;;;;;;;0.11;74.07;101045.94;4998019;28;20030;-74
2023/01/22 02:50:40;;;;;;;15.63;6.90;;;;;;;0.10;74.21;101047.66;4997580;28;20026;-74
2023/01/22 02:53:06;;;;;;;17.27;7.85;;;;;;;0.09;74.31;101047.56;4997702;28;20030;-74
2023/01/22 02:55:32;;;;;;;15.40;7.13;;;;;;;0.05;73.91;101041.38;5009181;28;20057;-74
2023/01/22 02:57:57;;;;;;;16.98;7.30;;;;;;;0.05;73.88;101036.19;4997831;28;20023;-74
2023/01/22 03:00:23;;;;;;;16.13;6.97;;;;;;;0.02;74.00;101042.91;5002950;28;20490;-74
2023/01/22 03:02:48;;;;;;;17.10;7.63;;;;;;;-0.01;74.02;101044.53;4996071;28;20026;-74
2023/01/22 03:05:14;;;;;;;16.30;7.28;;;;;;;-0.02;74.22;101045.34;4997528;28;20126;-74
2023/01/22 03:07:43;;;;;;;15.53;6.60;;;;;;;-0.03;74.02;101046.16;4995654;28;20058;-74
2023/01/22 03:10:15;;;;;;;16.85;6.93;;;;;;;-0.04;74.02;101043.47;4997344;28;20025;-74
2023/01/22 03:23:39;;;;;;;17.45;7.75;;;;;;;-0.08;74.36;101052.78;4997420;28;20089;-74
2023/01/22 03:26:05;;;;;;;15.87;7.20;;;;;;;-0.09;74.20;101043.25;4997106;28;20022;-74
2023/01/22 03:28:30;;;;;;;17.52;7.75;;;;;;;-0.12;73.63;101047.38;4978894;28;20034;-73
2023/01/22 03:30:56;;;;;;;15.73;7.30;;;;;;;-0.11;74.30;101044.88;4989135;28;20111;-74
2023/01/22 03:33:21;;;;;;;18.67;8.10;;;;;;;-0.11;74.39;101046.56;4996924;28;20034;-73
2023/01/22 03:35:47;;;;;;;15.33;7.07;;;;;;;-0.11;74.48;101057.81;4997094;28;20022;-73
2023/01/22 03:38:12;;;;;;;17.95;8.23;;;;;;;-0.11;74.36;101049.16;4997250;28;20109;-74
2023/01/22 03:40:37;;;;;;;19.77;8.73;;;;;;;-0.11;74.30;101044.88;4997370;28;20034;-74
2023/01/22 03:43:03;;;;;;;16.17;7.50;;;;;;;-0.11;74.27;101038.78;4997093;28;20031;-74
2023/01/22 03:45:30;;;;;;;16.70;7.70;;;;;;;-0.12;74.43;101040.50;4996916;28;20026;-74
2023/01/22 03:47:56;;;;;;;16.95;7.43;;;;;;;-0.16;74.22;101033.38;4996983;28;20034;-74
2023/01/22 03:50:21;;;;;;;16.87;7.70;;;;;;;-0.18;73.98;101037.56;4997304;28;20581;-73
2023/01/22 03:52:47;;;;;;;18.27;8.67;;;;;;;-0.19;74.21;101046.16;4996837;28;20495;-74
2023/01/22 03:55:12;;;;;;;19.75;8.43;;;;;;;-0.19;74.30;101040.97;4997112;28;20707;-73
2023/01/22 03:57:37;;;;;;;18.43;8.10;;;;;;;-0.20;74.15;101044.38;4996986;28;20025;-74
2023/01/22 04:00:06;;;;;;;19.20;8.83;;;;;;;-0.19;74.30;101046.16;5001420;28;20106;-73
2023/01/22 04:02:32;;;;;;;18.27;7.65;;;;;;;-0.17;74.30;101044.53;4996895;28;20105;-74
2023/01/22 04:04:58;;;;;;;14.93;7.65;;;;;;;-0.17;74.24;101054.88;4995860;28;20470;-74
2023/01/22 04:07:23;;;;;;;17.33;8.13;;;;;;;-0.18;74.37;101042.75;4996849;28;20029;-74
2023/01/22 04:09:49;;;;;;;19.23;7.73;;;;;;;-0.19;74.04;101047.06;4996831;28;20030;-74
2023/01/22 04:12:14;;;;;;;19.65;8.07;;;;;;;-0.20;73.75;101052.13;4996883;28;20032;-73
2023/01/22 04:14:39;;;;;;;19.83;8.27;;;;;;;-0.19;74.42;101046.16;5012116;28;20034;-74
2023/01/22 04:17:05;;;;;;;17.73;8.20;;;;;;;-0.19;74.22;101044.47;4996394;28;20449;-74
2023/01/22 04:19:30;;;;;;;18.53;7.87;;;;;;;-0.16;74.43;101047.22;4997454;28;20542;-74
2023/01/22 04:21:56;;;;;;;17.85;8.68;;;;;;;-0.17;74.59;101052.28;4996274;28;20023;-73
2023/01/22 04:24:21;;;;;;;17.20;8.00;;;;;;;-0.22;73.91;101054.66;4992997;28;20050;-74
2023/01/22 04:26:47;;;;;;;19.53;8.43;;;;;;;-0.25;74.21;101054.47;4999944;28;20030;-74
2023/01/22 04:29:12;;;;;;;18.73;8.50;;;;;;;-0.26;74.52;101059.59;5000437;28;20101;-74
2023/01/22 04:31:37;;;;;;;17.63;8.10;;;;;;;-0.26;74.87;101052.69;4999768;28;20033;-74
2023/01/22 04:34:03;;;;;;;18.23;8.30;;;;;;;-0.24;74.57;101051.09;5000075;28;20026;-74
2023/01/22 04:36:28;;;;;;;17.60;8.37;;;;;;;-0.22;74.40;101056.34;5000040;28;20105;-73
2023/01/22 04:38:54;;;;;;;17.77;7.87;;;;;;;-0.21;74.85;101055.53;5015455;28;20027;-73
2023/01/22 04:41:19;;;;;;;18.40;8.73;;;;;;;-0.21;74.75;101063.31;5000217;28;20562;-73
2023/01/22 04:43:44;;;;;;;17.88;8.18;;;;;;;-0.21;74.66;101073.66;4999031;28;20026;-74
2023/01/22 04:46:10;;;;;;;18.13;8.27;;;;;;;-0.19;74.78;101082.38;4999831;28;20044;-74
2023/01/22 04:48:35;;;;;;;19.07;8.60;;;;;;;-0.16;75.00;101086.03;5000306;28;20022;-73
2023/01/22 04:51:00;;;;;;;19.77;9.00;;;;;;;-0.15;74.72;101089.50;5000114;28;20033;-74
2023/01/22 04:53:26;;;;;;;17.17;8.80;;;;;;;-0.11;74.66;101088.88;4999568;28;20055;-73
2023/01/22 04:55:51;;;;;;;18.90;9.40;;;;;;;-0.09;74.59;101088.94;4999784;28;20130;-74
2023/01/22 04:58:17;;;;;;;20.63;8.97;;;;;;;-0.07;74.97;101097.69;5000042;28;20270;-73
2023/01/22 05:00:42;;;;;;;19.43;9.07;;;;;;;-0.03;75.09;101100.53;5005134;28;20026;-73
2023/01/22 05:03:09;;;;;;;18.23;8.03;;;;;;;0.02;74.90;101102.47;4999643;28;20080;-74
2023/01/22 05:05:34;;;;;;;16.13;8.13;;;;;;;0.10;74.85;101116.69;5000088;28;20549;-74
2023/01/22 05:08:00;;;;;;;18.50;8.63;;;;;;;0.17;75.24;101116.22;5000114;28;20137;-74
2023/01/22 05:10:26;;;;;;;19.67;8.90;;;;;;;0.25;75.09;101107.13;4998247;28;20041;-74
2023/01/22 05:12:51;;;;;;;18.67;8.20;;;;;;;0.27;74.79;101105.50;4999893;28;20030;-74
2023/01/22 05:15:17;;;;;;;20.07;8.70;;;;;;;0.31;74.58;101105.66;4999445;28;20081;-74
2023/01/22 05:17:43;;;;;;;17.95;8.75;;;;;;;0.33;74.84;101099.75;4999262;28;20018;-74
2023/01/22 05:20:09;;;;;;;17.87;8.00;;;;;;;0.35;75.02;101095.53;4999396;28;20480;-74
2023/01/22 05:22:34;;;;;;;21.88;8.60;;;;;;;0.35;74.58;101084.28;4999642;28;20023;-74
2023/01/22 05:25:00;;;;;;;19.47;8.73;;;;;;;0.30;74.25;101094.44;4999481;28;20029;-74
2023/01/22 05:27:25;;;;;;;19.25;8.75;;;;;;;0.30;74.84;101103.88;4988630;28;20034;-74
2023/01/22 05:29:50;;;;;;;19.30;8.90;;;;;;;0.34;74.76;101100.63;4982201;28;20022;-73
2023/01/22 05:32:16;;;;;;;18.10;8.50;;;;;;;0.37;74.81;101106.00;4998836;28;20130;-74
2023/01/22 05:34:41;;;;;;;20.20;9.30;;;;;;;0.34;74.12;101111.91;4998235;28;20030;-74
2023/01/22 05:37:07;;;;;;;20.45;9.27;;;;;;;0.41;75.17;101103.63;4999137;28;20026;-74
2023/01/22 05:39:32;;;;;;;21.90;9.00;;;;;;;0.49;74.76;101114.38;4999298;28;20072;-74
2023/01/22 05:41:57;;;;;;;19.47;9.10;;;;;;;0.53;74.76;101118.03;4999385;28;20022;-74
2023/01/22 05:44:25;;;;;;;18.87;9.17;;;;;;;0.56;74.79;101107.81;4999293;28;20026;-74
2023/01/22 05:46:50;;;;;;;19.30;9.40;;;;;;;0.58;74.92;101108.78;4998850;28;20116;-73
2023/01/22 05:49:16;;;;;;;20.40;9.07;;;;;;;0.60;74.76;101103.66;4999038;28;20034;-74
2023/01/22 05:51:41;;;;;;;21.13;9.13;;;;;;;0.52;73.96;101111.94;4999190;28;20026;-74
2023/01/22 05:54:06;;;;;;;19.40;8.77;;;;;;;0.57;74.94;101126.00;4998713;28;20558;-74
2023/01/22 05:56:32;;;;;;;22.13;9.37;;;;;;;0.61;75.25;101124.47;5002142;28;20402;-74
2023/01/22 05:58:57;;;;;;;20.37;9.07;;;;;;;0.64;75.06;101126.34;4998865;28;20022;-73
2023/01/22 06:01:23;;;;;;;20.08;9.25;;;;;;;0.65;75.31;101120.34;5003749;28;20027;-74
2023/01/22 06:03:48;;;;;;;18.90;8.57;;;;;;;0.66;74.46;101116.94;4998524;28;20050;-74
2023/01/22 06:06:14;;;;;;;19.30;9.40;;;;;;;0.68;74.88;101113.59;4998957;28;20015;-74
2023/01/22 06:08:40;;;;;;;20.92;9.43;;;;;;;0.71;74.81;101123.25;4998784;28;20062;-74
2023/01/22 06:11:11;;;;;;;22.70;10.02;;;;;;;0.73;75.17;101120.75;4998135;28;20510;-74
2023/01/22 06:13:37;;;;;;;18.52;8.95;;;;;;;0.74;75.19;101119.91;4998523;28;20027;-73
2023/01/22 06:16:03;;;;;;;18.80;9.00;;;;;;;0.73;74.73;101119.00;4998560;28;20040;-74
2023/01/22 06:18:29;;;;;;;19.52;9.27;;;;;;;0.78;75.17;101117.53;4998246;28;20030;-74
2023/01/22 06:21:01;;;;;;;19.63;9.83;;;;;;;0.78;75.00;101120.13;4998313;28;20478;-73
2023/01/22 06:23:28;;;;;;;23.58;10.15;;;;;;;0.79;75.46;101119.31;4998406;28;20030;-74
2023/01/22 06:25:55;;;;;;;20.80;9.52;;;;;;;0.82;75.42;101121.19;4998751;28;20030;-74
2023/01/22 06:28:20;;;;;;;19.70;9.40;;;;;;;0.84;75.02;101125.66;4998154;28;20113;-74
2023/01/22 06:30:46;;;;;;;23.13;9.77;;;;;;;0.89;75.60;101130.16;4997889;28;20065;-73
2023/01/22 06:33:12;;;;;;;21.63;10.30;;;;;;;0.89;75.31;101132.75;5013326;28;20030;-73
2023/01/22 06:35:37;;;;;;;21.87;10.40;;;;;;;0.88;75.18;101130.97;4997156;28;20088;-74
2023/01/22 06:38:03;;;;;;;21.10;10.10;;;;;;;0.85;75.11;101124.81;4997927;28;20033;-73
2023/01/22 06:40:29;;;;;;;24.63;10.50;;;;;;;0.89;75.17;101138.81;4998274;28;20031;-74
2023/01/22 06:42:56;;;;;;;22.88;10.55;;;;;;;0.92;75.03;101140.69;4997385;28;20049;-73
2023/01/22 06:45:22;;;;;;;22.23;9.90;;;;;;;0.89;74.65;101145.72;4996523;28;20083;-73
2023/01/22 06:47:48;;;;;;;22.67;9.70;;;;;;;0.89;75.39;101145.72;4997757;28;20018;-74
2023/01/22 06:50:13;;;;;;;23.60;9.97;;;;;;;0.87;74.95;101150.81;4997156;28;20030;-73
2023/01/22 06:52:39;;;;;;;24.92;10.68;;;;;;;0.90;75.19;101139.72;4997960;28;20105;-74
2023/01/22 06:55:04;;;;;;;22.03;10.00;;;;;;;0.91;75.01;101137.19;4997810;28;20081;-73
2023/01/22 06:57:30;;;;;;;22.35;9.93;;;;;;;0.92;75.34;101133.78;5012798;28;20030;-74
2023/01/22 06:59:55;;;;;;;22.53;10.23;;;;;;;0.91;75.21;101129.41;5001342;28;20878;-74
2023/01/22 07:02:21;;;;;;;23.83;10.80;;;;;;;0.92;75.04;101127.72;4999521;28;20031;-73
2023/01/22 07:04:46;;;;;;;22.75;10.57;;;;;;;0.90;75.04;101129.34;4997636;28;20022;-73
2023/01/22 07:07:12;;;;;;;21.67;10.07;;;;;;;0.85;75.10;101136.88;4997445;28;20110;-73
2023/01/22 07:09:38;;;;;;;22.27;10.60;;;;;;;0.77;74.69;101143.41;4997575;28;20049;-73
2023/01/22 07:12:03;;;;;;;24.60;11.50;;;;;;;0.75;74.57;101140.72;4997457;28;20164;-73
2023/01/22 07:14:32;;;;;;;25.57;12.03;;;;;;;0.72;75.20;101143.16;4996401;28;20285;-73
2023/01/22 07:16:57;;;;;;;24.95;11.40;;;;;;;0.65;74.85;101144.56;4997229;28;20030;-73
2023/01/22 07:19:23;;;;;;;24.87;11.67;;;;;;;0.65;75.33;101146.28;4997579;28;20141;-73
2023/01/22 07:21:48;;;;;;;25.80;11.43;;;;;;;0.63;75.13;101153.94;4997379;28;20022;-74
2023/01/22 07:24:14;;;;;;;28.15;12.23;;;;;;;0.63;75.34;101150.50;4997628;28;20367;-74
2023/01/22 07:26:41;;;;;;;25.90;11.10;;;;;;;0.65;75.37;101159.22;4993155;28;20492;-73
2023/01/22 07:29:07;;;;;;;23.80;10.93;;;;;;;0.67;75.15;101161.06;4978014;28;20026;-74
2023/01/22 07:31:32;;;;;;;25.33;11.68;;;;;;;0.70;75.06;101160.34;4993961;28;20030;-74
2023/01/22 07:33:57;;;;;;;28.60;11.83;;;;;;;0.72;75.12;101158.72;4997322;28;20026;-74
2023/01/22 07:36:23;;;;;;;23.13;11.07;;;;;;;0.76;75.24;101158.06;4997414;28;20054;-73
2023/01/22 07:38:48;;;;;;;26.90;11.03;;;;;;;0.74;74.86;101158.81;4997419;28;20026;-73
2023/01/22 07:41:14;;;;;;;30.33;13.13;;;;;;;0.69;74.42;101171.53;4997448;28;20022;-74
2023/01/22 07:43:40;;;;;;;26.67;11.67;;;;;;;0.71;74.87;101175.09;4997616;28;20265;-74
2023/01/22 07:46:06;;;;;;;23.80;11.83;;;;;;;0.68;75.01;101169.75;4997000;28;20026;-74
2023/01/22 07:48:32;;;;;;;27.17;12.57;;;;;;;0.71;75.47;101180.28;4997330;28;20281;-74
2023/01/22 07:50:59;;;;;;;27.73;12.60;;;;;;;0.73;74.97;101178.66;4997402;28;20026;-73
2023/01/22 07:53:24;;;;;;;28.95;12.50;;;;;;;0.73;74.84;101194.19;4998557;28;20060;-74
2023/01/22 07:55:50;;;;;;;29.57;12.60;;;;;;;0.72;74.38;101197.59;5000801;28;20015;-73
2023/01/22 07:58:15;;;;;;;27.80;13.37;;;;;;;0.75;75.00;101199.47;5016294;28;20036;-74
2023/01/22 08:00:41;;;;;;;25.27;11.93;;;;;;;0.72;75.17;101202.78;5006155;28;20022;-74
2023/01/22 08:03:09;;;;;;;29.57;11.93;;;;;;;0.75;75.30;101205.53;4996436;28;20030;-74
2023/01/22 08:05:38;;;;;;;24.95;11.63;;;;;;;0.77;75.37;101193.53;5014335;28;20037;-73
2023/01/22 08:08:04;;;;;;;30.42;12.15;;;;;;;0.78;74.76;101203.09;5001209;28;20057;-73
2023/01/22 08:10:29;;;;;;;29.50;13.73;;;;;;;0.77;75.67;101206.50;4999628;28;20495;-73
2023/01/22 08:12:55;;;;;;;29.30;12.98;;;;;;;0.80;75.08;101206.66;5000729;28;20026;-73
2023/01/22 08:15:21;;;;;;;29.70;12.60;;;;;;;0.80;74.82;101217.03;5000558;28;20057;-74
2023/01/22 08:17:50;;;;;;;26.33;11.83;;;;;;;0.82;75.46;101220.59;5000686;28;20559;-74
2023/01/22 08:20:16;;;;;;;31.37;13.00;;;;;;;0.82;75.09;101215.41;5000620;28;20261;-73
2023/01/22 08:22:42;;;;;;;27.42;12.60;;;;;;;0.88;74.72;101214.81;5000641;28;20033;-74
2023/01/22 08:25:08;;;;;;;29.20;13.82;;;;;;;0.89;75.31;101216.59;5000812;28;20031;-73
2023/01/22 08:27:34;;;;;;;25.60;12.23;;;;;;;0.91;75.26;101217.56;4988670;28;20042;-74
2023/01/22 08:30:00;;;;;;;26.77;12.07;;;;;;;0.95;74.95;101208.25;4994357;28;20030;-74
2023/01/22 08:32:25;;;;;;;28.98;12.25;;;;;;;1.02;75.48;101212.06;4999689;28;20022;-73
2023/01/22 08:34:53;;;;;;;28.50;12.23;;;;;;;1.12;75.28;101220.38;5000322;28;20034;-73
2023/01/22 08:37:19;;;;;;;25.95;13.18;;;;;;;1.27;75.09;101217.66;5000530;28;20034;-73
2023/01/22 08:39:45;;;;;;;27.48;12.32;;;;;;;1.36;74.46;101218.91;5000012;28;20030;-73
2023/01/22 08:42:10;;;;;;;25.27;12.20;;;;;;;1.49;74.77;101226.47;5000466;28;20049;-74
2023/01/22 08:44:36;;;;;;;28.03;12.87;;;;;;;1.63;74.54;101219.34;5000247;28;20033;-73
2023/01/22 08:47:01;;;;;;;29.40;12.75;;;;;;;1.77;75.10;101235.59;5000010;28;20037;-73
2023/01/22 08:49:29;;;;;;;28.90;13.30;;;;;;;1.85;74.82;101242.03;4999943;28;20101;-74
2023/01/22 08:51:55;;;;;;;28.35;12.68;;;;;;;1.86;74.01;101242.94;5000232;28;20022;-73
2023/01/22 08:54:21;;;;;;;29.38;12.25;;;;;;;1.77;73.78;101237.28;4999804;28;20030;-74
2023/01/22 08:56:46;;;;;;;29.03;13.57;;;;;;;1.82;74.57;101236.69;4999745;28;20030;-73
2023/01/22 08:59:13;;;;;;;29.10;13.70;;;;;;;1.99;73.95;101245.28;4999794;28;20034;-74
2023/01/22 09:01:38;;;;;;;31.60;13.20;;;;;;;2.10;74.19;101248.38;4999968;28;20261;-74
2023/01/22 09:04:08;;;;;;;31.95;13.55;;;;;;;2.15;74.67;101249.47;4999629;28;20033;-74
2023/01/22 09:06:35;;;;;;;27.03;13.33;;;;;;;2.25;74.01;101245.59;4998831;28;20053;-74
2023/01/22 09:09:01;;;;;;;31.00;14.48;;;;;;;2.39;74.59;101240.16;4999540;28;20050;-74
2023/01/22 09:11:30;;;;;;;26.75;12.52;;;;;;;2.61;72.59;101241.97;5002334;28;20040;-74
2023/01/22 09:13:56;;;;;;;27.48;12.60;;;;;;;3.01;73.71;101243.72;5000138;28;20057;-74
2023/01/22 09:16:26;;;;;;;28.63;12.95;;;;;;;3.15;73.83;101233.88;4991827;28;20030;-74
2023/01/22 09:18:52;;;;;;;26.50;12.83;;;;;;;3.16;72.83;101233.06;4995955;28;20019;-74
2023/01/22 09:21:18;;;;;;;27.60;12.73;;;;;;;3.23;73.03;101241.13;4999708;28;20113;-74
2023/01/22 09:23:43;;;;;;;29.98;14.35;;;;;;;3.44;73.48;101246.34;4999485;28;20030;-74
2023/01/22 09:26:09;;;;;;;27.83;13.07;;;;;;;3.38;72.39;101235.69;4998736;28;20018;-74
2023/01/22 09:28:34;;;;;;;27.90;12.90;;;;;;;3.26;72.50;101236.06;4980205;28;20459;-74
2023/01/22 09:31:00;;;;;;;32.60;14.23;;;;;;;3.05;72.37;101236.94;4996391;28;20135;-74
2023/01/22 09:33:25;;;;;;;28.40;12.87;;;;;;;2.95;73.34;101239.97;5008899;28;20042;-74
2023/01/22 09:35:51;;;;;;;26.43;12.93;;;;;;;2.94;73.22;101235.56;5008031;28;20105;-74
2023/01/22 09:38:17;;;;;;;27.70;13.65;;;;;;;2.95;73.38;101237.34;4994824;28;20110;-75
2023/01/22 09:41:00;;;;;;;30.27;13.80;;;;;;;3.03;73.25;101238.59;4998405;28;20033;-75
2023/01/22 09:43:34;;;;;;;29.73;13.40;;;;;;;3.03;73.03;101230.78;4995949;28;20022;-75
2023/01/22 09:46:11;;;;;;;27.75;13.25;;;;;;;3.12;71.94;101218.16;4999185;28;20046;-75
2023/01/22 09:48:44;;;;;;;27.27;13.43;;;;;;;3.18;72.48;101220.13;5013857;28;20105;-75
2023/01/22 09:51:21;;;;;;;28.25;13.15;;;;;;;3.20;72.52;101218.47;4998973;28;20030;-75
2023/01/22 09:53:52;;;;;;;30.37;14.43;;;;;;;3.25;73.58;101227.34;4979751;28;20015;-75
2023/01/22 09:56:41;;;;;;;29.00;14.13;;;;;;;3.26;73.50;101243.88;4998155;28;20109;-75
2023/01/22 09:59:13;;;;;;;27.33;12.98;;;;;;;3.25;72.65;101242.06;4996648;28;20434;-70
2023/01/22 10:01:40;;;;;;;28.58;13.27;;;;;;;3.32;72.57;101238.91;5006206;28;20041;-72
2023/01/22 10:04:20;;;;;;;29.08;13.50;;;;;;;3.43;71.74;101237.63;5004563;28;20032;-74
2023/01/22 10:06:47;;;;;;;32.60;14.27;;;;;;;3.62;72.93;101246.19;5005420;28;20034;-73
2023/01/22 10:09:15;;;;;;;26.83;12.82;;;;;;;3.76;71.94;101245.88;5005121;28;20073;-73
2023/01/22 10:11:44;;;;;;;29.88;13.48;;;;;;;4.15;71.74;101230.88;5003791;28;20054;-73
2023/01/22 10:14:16;;;;;;;27.73;12.77;;;;;;;4.58;72.26;101221.16;4999192;28;20040;-73
2023/01/22 10:16:41;;;;;;;27.08;12.18;;;;;;;4.86;71.10;101201.22;4987402;28;20068;-73
2023/01/22 10:19:13;;;;;;;24.87;12.10;;;;;;;4.88;71.38;101210.00;4989829;28;20113;-75
2023/01/22 10:22:01;;;;;;;23.67;11.23;;;;;;;4.56;68.27;101248.91;4997284;28;20093;-75
2023/01/22 10:24:28;;;;;;;23.27;10.73;;;;;;;4.23;70.81;101246.81;4988871;28;20049;-76
2023/01/22 10:26:54;;;;;;;24.55;10.93;;;;;;;3.94;70.94;101230.94;4998088;28;20034;-74
2023/01/22 10:29:28;;;;;;;25.83;11.25;;;;;;;3.71;70.99;101233.53;4998398;28;20033;-76
2023/01/22 10:31:59;;;;;;;23.70;11.50;;;;;;;3.57;71.75;101251.22;4990413;28;20061;-75
2023/01/22 10:34:31;;;;;;;25.77;12.07;;;;;;;3.39;71.48;101253.97;4990716;28;20065;-76
2023/01/22 10:37:23;;;;;;;25.83;11.87;;;;;;;3.10;68.21;101256.25;4982316;28;20027;-76
2023/01/22 10:39:51;;;;;;;28.85;12.15;;;;;;;3.08;72.51;101247.47;4995118;28;20454;-78
2023/01/22 10:42:18;;;;;;;23.73;11.15;;;;;;;3.03;72.49;101256.81;4998916;28;20041;-74
2023/01/22 10:44:45;;;;;;;28.50;12.32;;;;;;;3.05;72.66;101252.56;4995091;28;20030;-74
2023/01/22 10:47:22;;;;;;;28.98;12.57;;;;;;;2.97;69.09;101239.22;4996648;28;20038;-76
2023/01/22 10:50:00;;;;;;;30.03;12.40;;;;;;;2.94;72.21;101232.97;4996183;28;20105;-80
2023/01/22 10:52:41;;;;;;;29.63;12.85;;;;;;;2.88;71.87;101236.19;4996020;28;20034;-75
2023/01/22 10:55:20;;;;;;;30.52;13.85;;;;;;;2.94;72.45;101244.28;5009097;28;20042;-76
2023/01/22 10:57:52;;;;;;;32.47;12.20;;;;;;;3.09;72.87;101230.13;5010724;28;20014;-75
2023/01/22 11:00:30;;;;;;;25.92;11.77;;;;;;;3.12;71.17;101238.06;5003704;28;20022;-74
2023/01/22 11:02:57;;;;;;;25.33;11.70;;;;;;;3.08;70.35;101229.25;5016242;28;20087;-75
2023/01/22 11:05:29;;;;;;;28.55;12.70;;;;;;;3.12;72.25;101235.47;5000476;28;20022;-75
2023/01/22 11:08:17;;;;;;;27.73;13.18;;;;;;;3.04;71.26;101242.06;4988662;28;20396;-75
2023/01/22 11:11:06;;;;;;;27.45;12.45;;;;;;;3.00;69.77;101247.16;4982199;28;20561;-74
2023/01/22 11:13:55;;;;;;;31.83;13.52;;;;;;;2.96;70.80;101239.13;4995698;28;20071;-76
2023/01/22 11:16:23;;;;;;;29.33;12.90;;;;;;;2.95;72.32;101234.75;4992145;28;20117;-74
2023/01/22 11:18:54;;;;;;;31.30;13.98;;;;;;;2.90;72.66;101228.47;4987484;28;20107;-74
2023/01/22 11:21:25;;;;;;;35.25;14.77;;;;;;;2.81;71.05;101213.34;4997447;28;20041;-75
2023/01/22 11:24:03;;;;;;;36.13;14.30;;;;;;;2.72;72.36;101200.84;4992765;28;20705;-75
2023/01/22 11:26:59;;;;;;;33.15;13.88;;;;;;;2.65;71.05;101209.22;4994629;28;20034;-78
2023/01/22 11:29:54;;;;;;;32.03;12.30;;;;;;;2.60;70.81;101208.13;4982785;28;20078;-75
2023/01/22 11:33:00;;;;;;;36.88;14.18;;;;;;;2.63;71.93;101213.44;4993885;28;20522;-76